sensor_id;sensor_type;location;lat;lon;timestamp;P1;durP1;ratioP1;P2;durP2;ratioP2
17214;SDS011;8723;51.502;6.918;2023-08-21T00:00:32;3.38;;;1.70;;
17214;SDS011;8723;51.502;6.918;2023-08-21T00:02:59;4.67;;;1.93;;
17214;SDS011;8723;51.502;6.918;2023-08-21T00:05:26;4.70;;;1.95;;
17214;SDS011;8723;51.502;6.918;2023-08-21T00:07:52;4.43;;;2.17;;
17214;SDS011;8723;51.502;6.918;2023-08-21T00:10:19;3.63;;;1.80;;
17214;SDS011;8723;51.502;6.918;2023-08-21T00:12:46;2.80;;;1.60;;
17214;SDS011;8723;51.502;6.918;2023-08-21T00:15:14;3.53;;;1.80;;
17214;SDS011;8723;51.502;6.918;2023-08-21T00:17:41;4.35;;;1.95;;
17214;SDS011;8723;51.502;6.918;2023-08-21T00:20:08;4.43;;;1.83;;
17214;SDS011;8723;51.502;6.918;2023-08-21T00:22:36;4.25;;;1.80;;
17214;SDS011;8723;51.502;6.918;2023-08-21T00:25:03;4.50;;;1.80;;
17214;SDS011;8723;51.502;6.918;2023-08-21T00:27:30;4.18;;;1.80;;
17214;SDS011;8723;51.502;6.918;2023-08-21T00:29:57;5.13;;;1.90;;
17214;SDS011;8723;51.502;6.918;2023-08-21T00:32:25;4.43;;;2.03;;
17214;SDS011;8723;51.502;6.918;2023-08-21T00:34:52;4.72;;;2.10;;
17214;SDS011;8723;51.502;6.918;2023-08-21T00:37:19;3.47;;;2.20;;
17214;SDS011;8723;51.502;6.918;2023-08-21T00:39:46;4.63;;;1.95;;
17214;SDS011;8723;51.502;6.918;2023-08-21T00:42:12;4.82;;;1.92;;
17214;SDS011;8723;51.502;6.918;2023-08-21T00:44:39;5.50;;;1.90;;
17214;SDS011;8723;51.502;6.918;2023-08-21T00:47:06;3.65;;;1.88;;
17214;SDS011;8723;51.502;6.918;2023-08-21T00:49:34;3.77;;;1.97;;
17214;SDS011;8723;51.502;6.918;2023-08-21T00:52:01;4.47;;;2.00;;
17214;SDS011;8723;51.502;6.918;2023-08-21T00:54:29;4.32;;;1.90;;
17214;SDS011;8723;51.502;6.918;2023-08-21T00:56:56;5.50;;;2.13;;
17214;SDS011;8723;51.502;6.918;2023-08-21T00:59:23;3.55;;;1.67;;
17214;SDS011;8723;51.502;6.918;2023-08-21T01:01:50;4.70;;;1.83;;
17214;SDS011;8723;51.502;6.918;2023-08-21T01:04:17;3.92;;;1.70;;
17214;SDS011;8723;51.502;6.918;2023-08-21T01:06:45;5.03;;;1.88;;
17214;SDS011;8723;51.502;6.918;2023-08-21T01:09:13;5.15;;;1.83;;
17214;SDS011;8723;51.502;6.918;2023-08-21T01:11:46;4.88;;;1.92;;
17214;SDS011;8723;51.502;6.918;2023-08-21T01:14:21;4.75;;;2.00;;
17214;SDS011;8723;51.502;6.918;2023-08-21T01:16:55;4.93;;;1.77;;
17214;SDS011;8723;51.502;6.918;2023-08-21T01:19:26;3.47;;;1.80;;
17214;SDS011;8723;51.502;6.918;2023-08-21T01:21:59;4.93;;;1.90;;
17214;SDS011;8723;51.502;6.918;2023-08-21T01:24:27;5.03;;;1.90;;
17214;SDS011;8723;51.502;6.918;2023-08-21T01:26:54;4.55;;;1.90;;
17214;SDS011;8723;51.502;6.918;2023-08-21T01:29:21;5.22;;;1.80;;
17214;SDS011;8723;51.502;6.918;2023-08-21T01:31:50;4.28;;;1.80;;
17214;SDS011;8723;51.502;6.918;2023-08-21T01:34:24;4.18;;;1.85;;
17214;SDS011;8723;51.502;6.918;2023-08-21T01:36:52;4.10;;;1.90;;
17214;SDS011;8723;51.502;6.918;2023-08-21T01:39:19;4.18;;;1.65;;
17214;SDS011;8723;51.502;6.918;2023-08-21T01:41:49;4.00;;;2.00;;
17214;SDS011;8723;51.502;6.918;2023-08-21T01:44:18;3.67;;;1.65;;
17214;SDS011;8723;51.502;6.918;2023-08-21T01:46:45;5.43;;;2.10;;
17214;SDS011;8723;51.502;6.918;2023-08-21T01:49:14;3.58;;;1.77;;
17214;SDS011;8723;51.502;6.918;2023-08-21T01:51:44;4.38;;;1.80;;
17214;SDS011;8723;51.502;6.918;2023-08-21T01:54:14;3.30;;;1.60;;
17214;SDS011;8723;51.502;6.918;2023-08-21T01:56:44;5.05;;;1.88;;
17214;SDS011;8723;51.502;6.918;2023-08-21T01:59:15;5.33;;;2.03;;
17214;SDS011;8723;51.502;6.918;2023-08-21T02:01:45;2.75;;;1.70;;
17214;SDS011;8723;51.502;6.918;2023-08-21T02:04:15;4.68;;;1.80;;
17214;SDS011;8723;51.502;6.918;2023-08-21T02:06:43;5.07;;;1.67;;
17214;SDS011;8723;51.502;6.918;2023-08-21T02:09:12;5.70;;;2.00;;
17214;SDS011;8723;51.502;6.918;2023-08-21T02:11:39;4.90;;;2.17;;
17214;SDS011;8723;51.502;6.918;2023-08-21T02:14:07;6.30;;;2.10;;
17214;SDS011;8723;51.502;6.918;2023-08-21T02:16:38;4.07;;;1.85;;
17214;SDS011;8723;51.502;6.918;2023-08-21T02:19:08;4.38;;;2.20;;
17214;SDS011;8723;51.502;6.918;2023-08-21T02:21:37;4.53;;;1.83;;
17214;SDS011;8723;51.502;6.918;2023-08-21T02:24:05;3.88;;;1.80;;
17214;SDS011;8723;51.502;6.918;2023-08-21T02:26:33;6.88;;;2.00;;
17214;SDS011;8723;51.502;6.918;2023-08-21T02:29:02;4.43;;;1.70;;
17214;SDS011;8723;51.502;6.918;2023-08-21T02:31:31;6.75;;;2.00;;
17214;SDS011;8723;51.502;6.918;2023-08-21T02:34:02;5.47;;;1.83;;
17214;SDS011;8723;51.502;6.918;2023-08-21T02:36:32;4.10;;;1.73;;
17214;SDS011;8723;51.502;6.918;2023-08-21T02:38:58;5.03;;;1.90;;
17214;SDS011;8723;51.502;6.918;2023-08-21T02:41:25;3.47;;;1.47;;
17214;SDS011;8723;51.502;6.918;2023-08-21T02:43:53;3.07;;;1.70;;
17214;SDS011;8723;51.502;6.918;2023-08-21T02:46:20;2.65;;;1.55;;
17214;SDS011;8723;51.502;6.918;2023-08-21T02:48:47;4.18;;;1.70;;
17214;SDS011;8723;51.502;6.918;2023-08-21T02:51:15;4.87;;;1.70;;
17214;SDS011;8723;51.502;6.918;2023-08-21T02:53:42;5.27;;;2.10;;
17214;SDS011;8723;51.502;6.918;2023-08-21T02:56:08;5.00;;;1.75;;
17214;SDS011;8723;51.502;6.918;2023-08-21T02:58:35;6.20;;;1.92;;
17214;SDS011;8723;51.502;6.918;2023-08-21T03:01:02;5.30;;;2.10;;
17214;SDS011;8723;51.502;6.918;2023-08-21T03:03:30;4.97;;;2.00;;
17214;SDS011;8723;51.502;6.918;2023-08-21T03:05:59;4.40;;;2.17;;
17214;SDS011;8723;51.502;6.918;2023-08-21T03:08:31;4.53;;;2.20;;
17214;SDS011;8723;51.502;6.918;2023-08-21T03:11:00;4.35;;;1.98;;
17214;SDS011;8723;51.502;6.918;2023-08-21T03:13:29;6.83;;;2.10;;
17214;SDS011;8723;51.502;6.918;2023-08-21T03:15:56;4.10;;;2.00;;
17214;SDS011;8723;51.502;6.918;2023-08-21T03:18:23;5.90;;;2.30;;
17214;SDS011;8723;51.502;6.918;2023-08-21T03:20:50;5.22;;;2.10;;
17214;SDS011;8723;51.502;6.918;2023-08-21T03:23:17;4.45;;;2.05;;
17214;SDS011;8723;51.502;6.918;2023-08-21T03:25:45;5.25;;;2.10;;
17214;SDS011;8723;51.502;6.918;2023-08-21T03:28:11;4.82;;;2.10;;
17214;SDS011;8723;51.502;6.918;2023-08-21T03:30:38;3.50;;;1.85;;
17214;SDS011;8723;51.502;6.918;2023-08-21T03:33:05;6.60;;;2.20;;
17214;SDS011;8723;51.502;6.918;2023-08-21T03:35:33;4.07;;;2.10;;
17214;SDS011;8723;51.502;6.918;2023-08-21T03:38:00;5.00;;;2.05;;
17214;SDS011;8723;51.502;6.918;2023-08-21T03:40:27;4.63;;;2.27;;
17214;SDS011;8723;51.502;6.918;2023-08-21T03:42:55;4.03;;;2.10;;
17214;SDS011;8723;51.502;6.918;2023-08-21T03:45:22;5.00;;;1.95;;
17214;SDS011;8723;51.502;6.918;2023-08-21T03:47:48;4.22;;;2.20;;
17214;SDS011;8723;51.502;6.918;2023-08-21T03:50:15;3.60;;;2.10;;
17214;SDS011;8723;51.502;6.918;2023-08-21T03:52:42;4.65;;;2.08;;
17214;SDS011;8723;51.502;6.918;2023-08-21T03:55:09;5.85;;;2.15;;
17214;SDS011;8723;51.502;6.918;2023-08-21T03:57:35;4.63;;;2.50;;
17214;SDS011;8723;51.502;6.918;2023-08-21T04:00:04;3.67;;;1.92;;
17214;SDS011;8723;51.502;6.918;2023-08-21T04:02:33;4.07;;;2.10;;
17214;SDS011;8723;51.502;6.918;2023-08-21T04:05:00;3.70;;;1.70;;
17214;SDS011;8723;51.502;6.918;2023-08-21T04:07:27;3.03;;;2.20;;
17214;SDS011;8723;51.502;6.918;2023-08-21T04:09:53;5.53;;;2.70;;
17214;SDS011;8723;51.502;6.918;2023-08-21T04:12:20;4.90;;;2.40;;
17214;SDS011;8723;51.502;6.918;2023-08-21T04:14:47;7.53;;;2.67;;
17214;SDS011;8723;51.502;6.918;2023-08-21T04:17:15;5.45;;;2.25;;
17214;SDS011;8723;51.502;6.918;2023-08-21T04:19:47;6.03;;;2.22;;
17214;SDS011;8723;51.502;6.918;2023-08-21T04:22:13;5.18;;;2.47;;
17214;SDS011;8723;51.502;6.918;2023-08-21T04:24:40;5.18;;;2.47;;
17214;SDS011;8723;51.502;6.918;2023-08-21T04:27:07;5.88;;;2.55;;
17214;SDS011;8723;51.502;6.918;2023-08-21T04:29:34;4.38;;;2.35;;
17214;SDS011;8723;51.502;6.918;2023-08-21T04:32:01;4.70;;;2.35;;
17214;SDS011;8723;51.502;6.918;2023-08-21T04:34:30;4.88;;;2.40;;
17214;SDS011;8723;51.502;6.918;2023-08-21T04:36:58;5.43;;;2.50;;
17214;SDS011;8723;51.502;6.918;2023-08-21T04:39:25;6.28;;;2.40;;
17214;SDS011;8723;51.502;6.918;2023-08-21T04:41:52;6.57;;;2.35;;
17214;SDS011;8723;51.502;6.918;2023-08-21T04:44:19;7.97;;;2.58;;
17214;SDS011;8723;51.502;6.918;2023-08-21T04:46:48;6.72;;;2.42;;
17214;SDS011;8723;51.502;6.918;2023-08-21T04:49:15;5.70;;;2.45;;
17214;SDS011;8723;51.502;6.918;2023-08-21T04:51:43;4.75;;;2.35;;
17214;SDS011;8723;51.502;6.918;2023-08-21T04:54:10;5.07;;;2.30;;
17214;SDS011;8723;51.502;6.918;2023-08-21T04:56:37;6.28;;;2.80;;
17214;SDS011;8723;51.502;6.918;2023-08-21T04:59:04;8.07;;;2.58;;
17214;SDS011;8723;51.502;6.918;2023-08-21T05:01:30;5.95;;;2.92;;
17214;SDS011;8723;51.502;6.918;2023-08-21T05:03:57;6.47;;;2.90;;
17214;SDS011;8723;51.502;6.918;2023-08-21T05:06:24;6.05;;;2.95;;
17214;SDS011;8723;51.502;6.918;2023-08-21T05:08:52;5.00;;;2.83;;
17214;SDS011;8723;51.502;6.918;2023-08-21T05:11:19;8.70;;;3.20;;
17214;SDS011;8723;51.502;6.918;2023-08-21T05:13:46;6.63;;;3.83;;
17214;SDS011;8723;51.502;6.918;2023-08-21T05:16:12;7.95;;;3.42;;
17214;SDS011;8723;51.502;6.918;2023-08-21T05:18:39;6.97;;;3.10;;
17214;SDS011;8723;51.502;6.918;2023-08-21T05:21:06;7.77;;;3.50;;
17214;SDS011;8723;51.502;6.918;2023-08-21T05:23:33;8.13;;;3.47;;
17214;SDS011;8723;51.502;6.918;2023-08-21T05:26:01;5.33;;;3.10;;
17214;SDS011;8723;51.502;6.918;2023-08-21T05:28:28;11.93;;;3.60;;
17214;SDS011;8723;51.502;6.918;2023-08-21T05:30:56;5.68;;;2.83;;
17214;SDS011;8723;51.502;6.918;2023-08-21T05:33:23;6.03;;;3.03;;
17214;SDS011;8723;51.502;6.918;2023-08-21T05:35:50;7.40;;;3.00;;
17214;SDS011;8723;51.502;6.918;2023-08-21T05:38:17;6.78;;;3.50;;
17214;SDS011;8723;51.502;6.918;2023-08-21T05:40:43;7.90;;;3.30;;
17214;SDS011;8723;51.502;6.918;2023-08-21T05:43:11;8.20;;;3.30;;
17214;SDS011;8723;51.502;6.918;2023-08-21T05:45:38;8.15;;;3.60;;
17214;SDS011;8723;51.502;6.918;2023-08-21T05:48:05;6.75;;;3.38;;
17214;SDS011;8723;51.502;6.918;2023-08-21T05:50:32;6.88;;;3.25;;
17214;SDS011;8723;51.502;6.918;2023-08-21T05:53:01;7.82;;;3.40;;
17214;SDS011;8723;51.502;6.918;2023-08-21T05:55:29;8.93;;;3.78;;
17214;SDS011;8723;51.502;6.918;2023-08-21T05:57:55;8.20;;;3.75;;
17214;SDS011;8723;51.502;6.918;2023-08-21T06:00:23;6.05;;;3.10;;
17214;SDS011;8723;51.502;6.918;2023-08-21T06:02:50;8.88;;;3.70;;
17214;SDS011;8723;51.502;6.918;2023-08-21T06:05:17;7.85;;;4.00;;
17214;SDS011;8723;51.502;6.918;2023-08-21T06:07:44;7.25;;;3.60;;
17214;SDS011;8723;51.502;6.918;2023-08-21T06:10:11;6.10;;;3.30;;
17214;SDS011;8723;51.502;6.918;2023-08-21T06:12:40;5.88;;;3.20;;
17214;SDS011;8723;51.502;6.918;2023-08-21T06:15:07;7.55;;;3.28;;
17214;SDS011;8723;51.502;6.918;2023-08-21T06:17:36;6.63;;;2.93;;
17214;SDS011;8723;51.502;6.918;2023-08-21T06:20:04;9.15;;;3.22;;
17214;SDS011;8723;51.502;6.918;2023-08-21T06:22:33;5.73;;;3.40;;
17214;SDS011;8723;51.502;6.918;2023-08-21T06:25:00;7.68;;;3.90;;
17214;SDS011;8723;51.502;6.918;2023-08-21T06:27:27;7.03;;;3.72;;
17214;SDS011;8723;51.502;6.918;2023-08-21T06:29:54;8.82;;;3.88;;
17214;SDS011;8723;51.502;6.918;2023-08-21T06:32:21;6.97;;;3.47;;
17214;SDS011;8723;51.502;6.918;2023-08-21T06:34:49;10.18;;;3.88;;
17214;SDS011;8723;51.502;6.918;2023-08-21T06:37:16;6.00;;;3.67;;
17214;SDS011;8723;51.502;6.918;2023-08-21T06:39:43;8.55;;;4.63;;
17214;SDS011;8723;51.502;6.918;2023-08-21T06:42:09;8.37;;;4.40;;
17214;SDS011;8723;51.502;6.918;2023-08-21T06:44:36;10.43;;;4.20;;
17214;SDS011;8723;51.502;6.918;2023-08-21T06:47:03;9.80;;;4.63;;
17214;SDS011;8723;51.502;6.918;2023-08-21T06:49:30;8.70;;;4.00;;
17214;SDS011;8723;51.502;6.918;2023-08-21T06:51:58;7.32;;;3.90;;
17214;SDS011;8723;51.502;6.918;2023-08-21T06:54:25;9.27;;;3.90;;
17214;SDS011;8723;51.502;6.918;2023-08-21T06:56:52;9.38;;;4.03;;
17214;SDS011;8723;51.502;6.918;2023-08-21T06:59:19;7.38;;;3.38;;
17214;SDS011;8723;51.502;6.918;2023-08-21T07:01:46;6.93;;;3.50;;
17214;SDS011;8723;51.502;6.918;2023-08-21T07:04:13;5.05;;;2.70;;
17214;SDS011;8723;51.502;6.918;2023-08-21T07:06:39;5.82;;;3.17;;
17214;SDS011;8723;51.502;6.918;2023-08-21T07:09:08;6.95;;;3.28;;
17214;SDS011;8723;51.502;6.918;2023-08-21T07:11:35;4.87;;;2.93;;
17214;SDS011;8723;51.502;6.918;2023-08-21T07:14:01;6.13;;;2.78;;
17214;SDS011;8723;51.502;6.918;2023-08-21T07:16:28;6.55;;;3.28;;
17214;SDS011;8723;51.502;6.918;2023-08-21T07:18:55;7.15;;;2.90;;
17214;SDS011;8723;51.502;6.918;2023-08-21T07:21:22;7.45;;;2.60;;
17214;SDS011;8723;51.502;6.918;2023-08-21T07:23:49;5.63;;;2.50;;
17214;SDS011;8723;51.502;6.918;2023-08-21T07:26:17;5.40;;;2.80;;
17214;SDS011;8723;51.502;6.918;2023-08-21T07:28:43;5.70;;;2.70;;
17214;SDS011;8723;51.502;6.918;2023-08-21T07:31:10;5.77;;;2.40;;
17214;SDS011;8723;51.502;6.918;2023-08-21T07:33:37;5.63;;;2.17;;
17214;SDS011;8723;51.502;6.918;2023-08-21T07:36:04;3.00;;;1.80;;
17214;SDS011;8723;51.502;6.918;2023-08-21T07:38:32;5.30;;;2.23;;
17214;SDS011;8723;51.502;6.918;2023-08-21T07:41:02;3.42;;;2.08;;
17214;SDS011;8723;51.502;6.918;2023-08-21T07:43:31;2.97;;;1.77;;
17214;SDS011;8723;51.502;6.918;2023-08-21T07:46:01;5.28;;;2.30;;
17214;SDS011;8723;51.502;6.918;2023-08-21T07:48:28;4.53;;;2.47;;
17214;SDS011;8723;51.502;6.918;2023-08-21T07:50:55;4.45;;;2.20;;
17214;SDS011;8723;51.502;6.918;2023-08-21T07:53:22;4.47;;;2.27;;
17214;SDS011;8723;51.502;6.918;2023-08-21T07:55:49;6.32;;;2.10;;
17214;SDS011;8723;51.502;6.918;2023-08-21T07:58:17;4.30;;;2.07;;
17214;SDS011;8723;51.502;6.918;2023-08-21T08:00:45;3.45;;;1.88;;
17214;SDS011;8723;51.502;6.918;2023-08-21T08:03:13;5.25;;;1.95;;
17214;SDS011;8723;51.502;6.918;2023-08-21T08:05:40;2.58;;;1.60;;
17214;SDS011;8723;51.502;6.918;2023-08-21T08:08:07;3.97;;;1.70;;
17214;SDS011;8723;51.502;6.918;2023-08-21T08:10:36;3.80;;;1.58;;
17214;SDS011;8723;51.502;6.918;2023-08-21T08:13:04;4.55;;;1.83;;
17214;SDS011;8723;51.502;6.918;2023-08-21T08:15:31;5.93;;;1.80;;
17214;SDS011;8723;51.502;6.918;2023-08-21T08:18:00;1.73;;;1.20;;
17214;SDS011;8723;51.502;6.918;2023-08-21T08:20:27;2.75;;;1.67;;
17214;SDS011;8723;51.502;6.918;2023-08-21T08:22:54;3.38;;;1.65;;
17214;SDS011;8723;51.502;6.918;2023-08-21T08:25:21;3.38;;;1.45;;
17214;SDS011;8723;51.502;6.918;2023-08-21T08:27:48;4.33;;;1.83;;
17214;SDS011;8723;51.502;6.918;2023-08-21T08:30:15;4.28;;;1.67;;
17214;SDS011;8723;51.502;6.918;2023-08-21T08:32:42;3.83;;;1.60;;
17214;SDS011;8723;51.502;6.918;2023-08-21T08:35:11;3.83;;;1.57;;
17214;SDS011;8723;51.502;6.918;2023-08-21T08:37:38;3.00;;;1.48;;
17214;SDS011;8723;51.502;6.918;2023-08-21T08:40:06;4.15;;;1.50;;
17214;SDS011;8723;51.502;6.918;2023-08-21T08:42:34;2.92;;;1.40;;
17214;SDS011;8723;51.502;6.918;2023-08-21T08:45:02;4.57;;;1.40;;
17214;SDS011;8723;51.502;6.918;2023-08-21T08:47:30;2.95;;;1.30;;
17214;SDS011;8723;51.502;6.918;2023-08-21T08:49:59;5.15;;;1.70;;
17214;SDS011;8723;51.502;6.918;2023-08-21T08:52:31;1.95;;;1.20;;
17214;SDS011;8723;51.502;6.918;2023-08-21T08:55:00;2.67;;;1.33;;
17214;SDS011;8723;51.502;6.918;2023-08-21T08:57:28;3.55;;;1.45;;
17214;SDS011;8723;51.502;6.918;2023-08-21T08:59:55;4.70;;;1.60;;
17214;SDS011;8723;51.502;6.918;2023-08-21T09:02:23;2.43;;;1.40;;
17214;SDS011;8723;51.502;6.918;2023-08-21T09:04:50;2.65;;;1.30;;
17214;SDS011;8723;51.502;6.918;2023-08-21T09:07:17;2.63;;;1.38;;
17214;SDS011;8723;51.502;6.918;2023-08-21T09:09:46;2.60;;;1.10;;
17214;SDS011;8723;51.502;6.918;2023-08-21T09:12:14;3.30;;;1.33;;
17214;SDS011;8723;51.502;6.918;2023-08-21T09:14:42;3.80;;;1.27;;
17214;SDS011;8723;51.502;6.918;2023-08-21T09:17:10;2.90;;;1.40;;
17214;SDS011;8723;51.502;6.918;2023-08-21T09:19:37;4.07;;;1.55;;
17214;SDS011;8723;51.502;6.918;2023-08-21T09:22:08;5.30;;;1.58;;
17214;SDS011;8723;51.502;6.918;2023-08-21T09:24:37;4.00;;;1.40;;
17214;SDS011;8723;51.502;6.918;2023-08-21T09:27:15;2.73;;;1.30;;
17214;SDS011;8723;51.502;6.918;2023-08-21T09:29:42;3.63;;;1.42;;
17214;SDS011;8723;51.502;6.918;2023-08-21T09:32:09;2.45;;;1.40;;
17214;SDS011;8723;51.502;6.918;2023-08-21T09:34:36;3.70;;;1.30;;
17214;SDS011;8723;51.502;6.918;2023-08-21T09:37:04;3.17;;;1.55;;
17214;SDS011;8723;51.502;6.918;2023-08-21T09:39:33;3.40;;;1.60;;
17214;SDS011;8723;51.502;6.918;2023-08-21T09:42:01;4.43;;;1.75;;
17214;SDS011;8723;51.502;6.918;2023-08-21T09:44:36;2.15;;;1.35;;
17214;SDS011;8723;51.502;6.918;2023-08-21T09:47:04;4.30;;;1.40;;
17214;SDS011;8723;51.502;6.918;2023-08-21T09:49:34;1.80;;;1.20;;
17214;SDS011;8723;51.502;6.918;2023-08-21T09:52:02;2.70;;;1.40;;
17214;SDS011;8723;51.502;6.918;2023-08-21T09:54:31;2.50;;;1.38;;
17214;SDS011;8723;51.502;6.918;2023-08-21T09:57:00;4.03;;;1.40;;
17214;SDS011;8723;51.502;6.918;2023-08-21T09:59:28;5.53;;;1.80;;
17214;SDS011;8723;51.502;6.918;2023-08-21T10:01:57;3.97;;;1.33;;
17214;SDS011;8723;51.502;6.918;2023-08-21T10:04:25;3.60;;;1.27;;
17214;SDS011;8723;51.502;6.918;2023-08-21T10:06:54;3.20;;;1.52;;
17214;SDS011;8723;51.502;6.918;2023-08-21T10:09:23;2.92;;;1.50;;
17214;SDS011;8723;51.502;6.918;2023-08-21T10:11:50;3.72;;;1.20;;
17214;SDS011;8723;51.502;6.918;2023-08-21T10:14:19;4.05;;;1.50;;
17214;SDS011;8723;51.502;6.918;2023-08-21T10:16:47;3.40;;;1.83;;
17214;SDS011;8723;51.502;6.918;2023-08-21T10:19:15;2.88;;;1.45;;
17214;SDS011;8723;51.502;6.918;2023-08-21T10:21:46;3.72;;;1.45;;
17214;SDS011;8723;51.502;6.918;2023-08-21T10:24:13;4.13;;;1.40;;
17214;SDS011;8723;51.502;6.918;2023-08-21T10:26:52;4.07;;;1.70;;
17214;SDS011;8723;51.502;6.918;2023-08-21T10:29:19;4.60;;;1.58;;
17214;SDS011;8723;51.502;6.918;2023-08-21T10:31:46;2.63;;;1.60;;
17214;SDS011;8723;51.502;6.918;2023-08-21T10:34:30;3.20;;;1.40;;
17214;SDS011;8723;51.502;6.918;2023-08-21T10:37:02;3.13;;;1.33;;
17214;SDS011;8723;51.502;6.918;2023-08-21T10:39:35;3.30;;;1.70;;
17214;SDS011;8723;51.502;6.918;2023-08-21T10:42:05;3.60;;;1.50;;
17214;SDS011;8723;51.502;6.918;2023-08-21T10:47:31;2.35;;;1.40;;
17214;SDS011;8723;51.502;6.918;2023-08-21T10:50:02;2.47;;;1.35;;
17214;SDS011;8723;51.502;6.918;2023-08-21T10:52:31;3.25;;;1.50;;
17214;SDS011;8723;51.502;6.918;2023-08-21T10:55:01;3.10;;;1.33;;
17214;SDS011;8723;51.502;6.918;2023-08-21T10:57:29;3.65;;;1.33;;
17214;SDS011;8723;51.502;6.918;2023-08-21T10:59:57;3.00;;;1.65;;
17214;SDS011;8723;51.502;6.918;2023-08-21T11:02:26;4.45;;;1.60;;
17214;SDS011;8723;51.502;6.918;2023-08-21T11:04:54;5.00;;;1.40;;
17214;SDS011;8723;51.502;6.918;2023-08-21T11:07:23;3.43;;;1.60;;
17214;SDS011;8723;51.502;6.918;2023-08-21T11:09:50;4.30;;;1.70;;
17214;SDS011;8723;51.502;6.918;2023-08-21T11:12:17;4.45;;;1.73;;
17214;SDS011;8723;51.502;6.918;2023-08-21T11:14:46;3.22;;;1.60;;
17214;SDS011;8723;51.502;6.918;2023-08-21T11:17:14;3.63;;;1.60;;
17214;SDS011;8723;51.502;6.918;2023-08-21T11:19:41;5.13;;;1.63;;
17214;SDS011;8723;51.502;6.918;2023-08-21T11:22:08;1.90;;;1.20;;
17214;SDS011;8723;51.502;6.918;2023-08-21T11:24:40;4.13;;;1.58;;
17214;SDS011;8723;51.502;6.918;2023-08-21T11:27:08;4.28;;;1.50;;
17214;SDS011;8723;51.502;6.918;2023-08-21T11:29:37;3.95;;;1.60;;
17214;SDS011;8723;51.502;6.918;2023-08-21T11:32:08;4.88;;;1.52;;
17214;SDS011;8723;51.502;6.918;2023-08-21T11:34:36;2.50;;;1.33;;
17214;SDS011;8723;51.502;6.918;2023-08-21T11:37:03;5.28;;;1.40;;
17214;SDS011;8723;51.502;6.918;2023-08-21T11:39:45;2.75;;;1.10;;
17214;SDS011;8723;51.502;6.918;2023-08-21T11:42:14;2.70;;;1.27;;
17214;SDS011;8723;51.502;6.918;2023-08-21T11:44:44;3.15;;;1.50;;
17214;SDS011;8723;51.502;6.918;2023-08-21T11:47:13;2.60;;;1.10;;
17214;SDS011;8723;51.502;6.918;2023-08-21T11:49:40;3.67;;;1.48;;
17214;SDS011;8723;51.502;6.918;2023-08-21T11:52:08;3.70;;;1.42;;
17214;SDS011;8723;51.502;6.918;2023-08-21T11:54:36;4.45;;;1.63;;
17214;SDS011;8723;51.502;6.918;2023-08-21T11:57:07;3.83;;;1.65;;
17214;SDS011;8723;51.502;6.918;2023-08-21T11:59:34;3.38;;;1.50;;
17214;SDS011;8723;51.502;6.918;2023-08-21T12:02:07;4.20;;;1.63;;
17214;SDS011;8723;51.502;6.918;2023-08-21T12:04:35;2.20;;;1.13;;
17214;SDS011;8723;51.502;6.918;2023-08-21T12:07:02;2.17;;;1.20;;
17214;SDS011;8723;51.502;6.918;2023-08-21T12:09:29;3.17;;;1.48;;
17214;SDS011;8723;51.502;6.918;2023-08-21T12:11:56;3.60;;;1.33;;
17214;SDS011;8723;51.502;6.918;2023-08-21T12:14:24;5.07;;;1.90;;
17214;SDS011;8723;51.502;6.918;2023-08-21T12:16:52;4.85;;;1.58;;
17214;SDS011;8723;51.502;6.918;2023-08-21T12:19:19;3.95;;;1.38;;
17214;SDS011;8723;51.502;6.918;2023-08-21T12:21:46;4.90;;;1.50;;
17214;SDS011;8723;51.502;6.918;2023-08-21T12:24:13;3.50;;;1.58;;
17214;SDS011;8723;51.502;6.918;2023-08-21T12:26:40;3.20;;;1.38;;
17214;SDS011;8723;51.502;6.918;2023-08-21T12:29:07;4.93;;;1.73;;
17214;SDS011;8723;51.502;6.918;2023-08-21T12:31:35;3.70;;;1.73;;
17214;SDS011;8723;51.502;6.918;2023-08-21T12:34:02;3.43;;;1.57;;
17214;SDS011;8723;51.502;6.918;2023-08-21T12:36:29;5.00;;;1.60;;
17214;SDS011;8723;51.502;6.918;2023-08-21T12:38:56;4.35;;;1.48;;
17214;SDS011;8723;51.502;6.918;2023-08-21T12:41:23;5.03;;;1.70;;
17214;SDS011;8723;51.502;6.918;2023-08-21T12:43:50;3.27;;;1.60;;
17214;SDS011;8723;51.502;6.918;2023-08-21T12:46:16;5.93;;;1.75;;
17214;SDS011;8723;51.502;6.918;2023-08-21T12:48:45;3.42;;;1.75;;
17214;SDS011;8723;51.502;6.918;2023-08-21T12:51:11;5.95;;;1.80;;
17214;SDS011;8723;51.502;6.918;2023-08-21T12:53:38;4.57;;;1.73;;
17214;SDS011;8723;51.502;6.918;2023-08-21T12:56:05;5.70;;;1.60;;
17214;SDS011;8723;51.502;6.918;2023-08-21T12:58:32;4.68;;;1.65;;
17214;SDS011;8723;51.502;6.918;2023-08-21T13:00:59;3.55;;;1.80;;
17214;SDS011;8723;51.502;6.918;2023-08-21T13:03:25;5.30;;;1.80;;
17214;SDS011;8723;51.502;6.918;2023-08-21T13:05:54;5.30;;;1.98;;
17214;SDS011;8723;51.502;6.918;2023-08-21T13:08:20;4.32;;;2.13;;
17214;SDS011;8723;51.502;6.918;2023-08-21T13:10:47;3.63;;;2.00;;
17214;SDS011;8723;51.502;6.918;2023-08-21T13:13:14;4.32;;;1.80;;
17214;SDS011;8723;51.502;6.918;2023-08-21T13:15:41;5.15;;;1.77;;
17214;SDS011;8723;51.502;6.918;2023-08-21T13:18:09;4.75;;;2.00;;
17214;SDS011;8723;51.502;6.918;2023-08-21T13:20:36;4.25;;;1.83;;
17214;SDS011;8723;51.502;6.918;2023-08-21T13:23:04;4.07;;;1.60;;
17214;SDS011;8723;51.502;6.918;2023-08-21T13:25:31;4.95;;;1.80;;
17214;SDS011;8723;51.502;6.918;2023-08-21T13:28:00;3.47;;;1.63;;
17214;SDS011;8723;51.502;6.918;2023-08-21T13:30:28;4.43;;;1.77;;
17214;SDS011;8723;51.502;6.918;2023-08-21T13:32:55;3.25;;;1.63;;
17214;SDS011;8723;51.502;6.918;2023-08-21T13:35:22;3.97;;;1.90;;
17214;SDS011;8723;51.502;6.918;2023-08-21T13:37:49;4.80;;;2.00;;
17214;SDS011;8723;51.502;6.918;2023-08-21T13:40:18;3.53;;;1.80;;
17214;SDS011;8723;51.502;6.918;2023-08-21T13:42:46;3.90;;;1.90;;
17214;SDS011;8723;51.502;6.918;2023-08-21T13:45:15;5.18;;;1.83;;
17214;SDS011;8723;51.502;6.918;2023-08-21T13:47:43;2.60;;;1.80;;
17214;SDS011;8723;51.502;6.918;2023-08-21T13:50:13;4.50;;;1.58;;
17214;SDS011;8723;51.502;6.918;2023-08-21T13:52:41;3.40;;;1.75;;
17214;SDS011;8723;51.502;6.918;2023-08-21T13:55:09;4.35;;;1.73;;
17214;SDS011;8723;51.502;6.918;2023-08-21T13:57:37;4.00;;;1.70;;
17214;SDS011;8723;51.502;6.918;2023-08-21T14:00:05;4.43;;;1.60;;
17214;SDS011;8723;51.502;6.918;2023-08-21T14:02:36;4.33;;;1.83;;
17214;SDS011;8723;51.502;6.918;2023-08-21T14:05:04;4.22;;;2.10;;
17214;SDS011;8723;51.502;6.918;2023-08-21T14:07:32;4.10;;;1.73;;
17214;SDS011;8723;51.502;6.918;2023-08-21T14:09:59;5.07;;;1.70;;
17214;SDS011;8723;51.502;6.918;2023-08-21T14:12:28;3.25;;;1.90;;
17214;SDS011;8723;51.502;6.918;2023-08-21T14:14:57;4.15;;;1.90;;
17214;SDS011;8723;51.502;6.918;2023-08-21T14:17:24;2.40;;;1.50;;
17214;SDS011;8723;51.502;6.918;2023-08-21T14:19:51;3.80;;;1.80;;
17214;SDS011;8723;51.502;6.918;2023-08-21T14:22:18;2.72;;;1.55;;
17214;SDS011;8723;51.502;6.918;2023-08-21T14:24:45;4.00;;;1.52;;
17214;SDS011;8723;51.502;6.918;2023-08-21T14:27:11;4.32;;;1.70;;
17214;SDS011;8723;51.502;6.918;2023-08-21T14:29:38;4.65;;;1.70;;
17214;SDS011;8723;51.502;6.918;2023-08-21T14:32:06;3.38;;;1.75;;
17214;SDS011;8723;51.502;6.918;2023-08-21T14:34:34;3.95;;;1.70;;
17214;SDS011;8723;51.502;6.918;2023-08-21T14:37:01;2.90;;;1.80;;
17214;SDS011;8723;51.502;6.918;2023-08-21T14:39:29;5.50;;;2.05;;
17214;SDS011;8723;51.502;6.918;2023-08-21T14:41:56;7.15;;;2.13;;
17214;SDS011;8723;51.502;6.918;2023-08-21T14:44:23;5.28;;;2.20;;
17214;SDS011;8723;51.502;6.918;2023-08-21T14:46:52;5.07;;;2.13;;
17214;SDS011;8723;51.502;6.918;2023-08-21T14:49:21;4.65;;;2.17;;
17214;SDS011;8723;51.502;6.918;2023-08-21T14:51:48;5.28;;;2.22;;
17214;SDS011;8723;51.502;6.918;2023-08-21T14:54:15;3.10;;;1.80;;
17214;SDS011;8723;51.502;6.918;2023-08-21T14:56:42;5.28;;;2.20;;
17214;SDS011;8723;51.502;6.918;2023-08-21T14:59:09;3.30;;;1.92;;
17214;SDS011;8723;51.502;6.918;2023-08-21T15:01:36;5.03;;;2.38;;
17214;SDS011;8723;51.502;6.918;2023-08-21T15:04:03;3.90;;;2.15;;
17214;SDS011;8723;51.502;6.918;2023-08-21T15:06:31;4.40;;;2.00;;